Time;durP1;ratioP1;P1;durP2;ratioP2;P2;SDS_P1;SDS_P2;PMS_P1;PMS_P2;Temp;Humidity;BMP_temperature;BMP_pressure;BME280_temperature;BME280_humidity;BME280_pressure;Samples;Min_cycle;Max_cycle;Signal;HPM_P1;HPM_P2
2023/06/02 00:00:16;;;;;;;6.50;3.30;;;;;;;11.77;100.00;101159.22;701305;28;915;-57
2023/06/02 00:00:39;;;;;;;6.70;3.50;;;;;;;11.83;100.00;101158.31;698472;28;1897;-57
2023/06/02 00:01:02;;;;;;;6.22;3.22;;;;;;;11.75;100.00;101166.19;700245;28;1021;-56
2023/06/02 00:01:24;;;;;;;7.78;3.50;;;;;;;11.68;100.00;101170.56;699931;28;4382;-56
2023/06/02 00:01:49;;;;;;;8.75;3.13;;;;;;;11.63;100.00;101158.34;701012;28;851;-57
2023/06/02 00:02:09;;;;;;;6.88;3.33;;;;;;;11.65;100.00;101162.72;700499;28;1460;-56
2023/06/02 00:02:33;;;;;;;6.77;3.43;;;;;;;11.68;100.00;101160.06;698602;28;943;-56
2023/06/02 00:02:55;;;;;;;6.93;3.38;;;;;;;11.76;100.00;101163.56;699713;28;1305;-56
2023/06/02 00:03:15;;;;;;;6.75;3.40;;;;;;;11.72;100.00;101161.81;699818;28;725;-56
2023/06/02 00:03:37;;;;;;;6.15;3.10;;;;;;;11.83;100.00;101155.72;699053;28;1376;-57
2023/06/02 00:03:59;;;;;;;6.38;3.40;;;;;;;11.83;100.00;101153.94;700084;28;1057;-56
2023/06/02 00:04:23;;;;;;;6.10;3.03;;;;;;;11.81;100.00;101160.06;700515;28;4472;-55
2023/06/02 00:04:45;;;;;;;5.30;3.10;;;;;;;11.87;100.00;101166.16;700788;28;1057;-57
2023/06/02 00:05:06;;;;;;;8.07;3.40;;;;;;;11.83;100.00;101164.44;700741;28;939;-54
2023/06/02 00:05:26;;;;;;;6.30;3.23;;;;;;;11.81;100.00;101160.94;699027;28;1574;-57
2023/06/02 00:05:49;;;;;;;5.47;3.15;;;;;;;11.71;100.00;101162.72;700421;28;979;-57
2023/06/02 00:06:11;;;;;;;6.95;3.33;;;;;;;11.70;100.00;101165.31;700752;28;915;-56
2023/06/02 00:06:33;;;;;;;5.97;3.20;;;;;;;11.70;100.00;101158.34;699856;28;940;-56
2023/06/02 00:06:55;;;;;;;6.88;3.20;;;;;;;11.72;100.00;101159.19;700915;28;1464;-56
2023/06/02 00:07:16;;;;;;;6.35;3.10;;;;;;;11.76;100.00;101160.09;699076;28;4496;-57
2023/06/02 00:07:37;;;;;;;5.37;2.90;;;;;;;11.75;100.00;101166.19;699436;28;1071;-55
2023/06/02 00:07:58;;;;;;;6.35;3.08;;;;;;;11.72;100.00;101161.81;701185;28;918;-56
2023/06/02 00:08:18;;;;;;;6.18;2.83;;;;;;;11.72;100.00;101160.97;700625;28;801;-56
2023/06/02 00:08:40;;;;;;;5.20;2.83;;;;;;;11.72;100.00;101166.19;698629;28;1646;-57
2023/06/02 00:09:04;;;;;;;6.22;3.03;;;;;;;11.61;100.00;101157.50;700493;28;1239;-57
2023/06/02 00:09:24;;;;;;;5.63;3.05;;;;;;;11.58;100.00;101155.75;699393;28;935;-58
2023/06/02 00:09:44;;;;;;;6.00;3.07;;;;;;;11.53;100.00;101166.22;700404;28;748;-56
2023/06/02 00:10:05;;;;;;;6.53;3.20;;;;;;;11.53;100.00;101165.34;700167;28;4629;-57
2023/06/02 00:10:26;;;;;;;6.05;3.15;;;;;;;11.54;100.00;101165.34;698935;28;890;-57
2023/06/02 00:10:46;;;;;;;5.67;3.20;;;;;;;11.50;100.00;101160.09;700144;28;1037;-57
2023/06/02 00:11:09;;;;;;;7.63;3.38;;;;;;;11.50;100.00;101160.97;701119;28;821;-57
2023/06/02 00:11:34;;;;;;;6.40;3.17;;;;;;;11.50;100.00;101163.59;699110;28;866;-54
2023/06/02 00:11:54;;;;;;;5.78;3.00;;;;;;;11.51;100.00;101162.72;700305;28;1463;-56
2023/06/02 00:12:15;;;;;;;6.38;3.30;;;;;;;11.57;100.00;101162.75;700162;28;1495;-57
2023/06/02 00:12:35;;;;;;;6.63;3.10;;;;;;;11.63;100.00;101158.34;695527;28;1534;-57
2023/06/02 00:12:55;;;;;;;6.03;2.90;;;;;;;11.65;100.00;101164.47;697710;28;1030;-56
2023/06/02 00:13:16;;;;;;;5.28;3.00;;;;;;;11.66;100.00;101158.34;699123;28;4394;-57
2023/06/02 00:13:37;;;;;;;6.27;3.03;;;;;;;11.66;100.00;101160.94;697067;28;986;-57
2023/06/02 00:13:58;;;;;;;6.85;3.30;;;;;;;11.65;100.00;101159.22;700672;28;943;-57
2023/06/02 00:14:18;;;;;;;6.70;3.57;;;;;;;11.68;100.00;101164.47;698226;28;868;-56
2023/06/02 00:14:42;;;;;;;5.90;3.40;;;;;;;11.64;100.00;101162.72;698916;28;1252;-57
2023/06/02 00:15:04;;;;;;;6.88;3.50;;;;;;;11.58;100.00;101163.59;696863;28;900;-56
2023/06/02 00:15:24;;;;;;;6.18;3.20;;;;;;;11.58;100.00;101164.47;696962;28;1006;-57
2023/06/02 00:15:45;;;;;;;5.13;3.10;;;;;;;11.58;100.00;101156.59;696809;28;975;-56
2023/06/02 00:16:06;;;;;;;6.20;3.30;;;;;;;11.55;100.00;101166.22;698011;28;4551;-56
2023/06/02 00:16:26;;;;;;;5.10;2.97;;;;;;;11.61;100.00;101165.34;696408;28;1357;-56
2023/06/02 00:16:47;;;;;;;6.07;3.17;;;;;;;11.65;100.00;101167.09;697741;28;1063;-55
2023/06/02 00:17:11;;;;;;;7.05;3.42;;;;;;;11.79;100.00;101164.44;700819;28;924;-57
2023/06/02 00:17:33;;;;;;;8.43;3.90;;;;;;;11.77;100.00;101161.84;699227;28;1022;-52
2023/06/02 00:17:54;;;;;;;8.20;3.85;;;;;;;11.74;100.00;101161.81;697652;28;1469;-55
2023/06/02 00:18:14;;;;;;;6.97;3.17;;;;;;;11.75;100.00;101161.84;698902;28;1579;-56
2023/06/02 00:18:37;;;;;;;6.23;3.33;;;;;;;11.74;100.00;101167.06;699554;28;878;-56
2023/06/02 00:18:58;;;;;;;6.13;3.30;;;;;;;11.69;100.00;101161.84;700492;28;796;-56
2023/06/02 00:19:18;;;;;;;6.57;3.23;;;;;;;11.60;100.00;101156.59;700168;28;4449;-56
2023/06/02 00:19:42;;;;;;;5.88;3.20;;;;;;;11.58;100.00;101156.59;695074;28;3279;-56
2023/06/02 00:20:05;;;;;;;6.43;3.40;;;;;;;11.60;100.00;101156.59;698221;28;1061;-55
2023/06/02 00:20:26;;;;;;;6.57;3.75;;;;;;;11.62;100.00;101161.84;697038;28;1622;-57
2023/06/02 00:20:46;;;;;;;6.30;3.50;;;;;;;11.59;100.00;101155.72;697525;28;1050;-57
2023/06/02 00:21:08;;;;;;;7.05;3.63;;;;;;;11.63;100.00;101158.34;697988;28;836;-57
2023/06/02 00:21:28;;;;;;;7.03;3.47;;;;;;;11.61;100.00;101157.50;697633;28;1981;-56
2023/06/02 00:21:48;;;;;;;6.05;3.30;;;;;;;11.57;100.00;101162.75;700729;28;903;-55
2023/06/02 00:22:13;;;;;;;7.20;3.50;;;;;;;11.53;100.00;101155.75;700067;28;4548;-57
2023/06/02 00:22:38;;;;;;;4.88;3.08;;;;;;;11.51;100.00;101154.88;698932;28;1661;-56
2023/06/02 00:22:58;;;;;;;6.93;3.20;;;;;;;11.50;100.00;101157.50;700307;28;1033;-54
2023/06/02 00:23:19;;;;;;;6.50;3.20;;;;;;;11.48;100.00;101162.72;701213;28;982;-56
2023/06/02 00:23:40;;;;;;;6.95;3.38;;;;;;;11.45;100.00;101162.75;698485;28;1627;-56
2023/06/02 00:24:00;;;;;;;6.50;3.30;;;;;;;11.51;100.00;101160.09;700221;28;1490;-57
2023/06/02 00:24:21;;;;;;;6.13;3.40;;;;;;;11.53;100.00;101161.00;699128;28;1236;-56
2023/06/02 00:24:42;;;;;;;5.47;3.13;;;;;;;11.58;100.00;101161.84;699753;28;1521;-56
2023/06/02 00:25:03;;;;;;;5.35;3.38;;;;;;;11.75;100.00;101164.47;700239;28;1364;-57
2023/06/02 00:25:23;;;;;;;6.30;3.35;;;;;;;11.73;100.00;101165.34;700099;28;4254;-56
2023/06/02 00:25:44;;;;;;;5.97;3.37;;;;;;;11.69;100.00;101160.97;698497;28;1582;-56
2023/06/02 00:26:04;;;;;;;6.50;3.60;;;;;;;11.61;100.00;101157.50;700419;28;1240;-57
2023/06/02 00:26:25;;;;;;;6.53;3.40;;;;;;;11.64;100.00;101152.25;699133;28;1511;-57
2023/06/02 00:26:46;;;;;;;5.45;3.38;;;;;;;11.66;100.00;101161.84;700917;28;873;-56
2023/06/02 00:27:09;;;;;;;5.27;3.20;;;;;;;11.66;100.00;101160.94;700417;28;1335;-56
2023/06/02 00:27:29;;;;;;;6.03;3.10;;;;;;;11.59;100.00;101154.88;698648;28;1615;-57
2023/06/02 00:27:50;;;;;;;6.05;3.28;;;;;;;11.58;100.00;101158.34;700237;28;1385;-56
2023/06/02 00:28:11;;;;;;;6.10;3.33;;;;;;;11.57;100.00;101154.88;696978;28;4571;-56
2023/06/02 00:28:31;;;;;;;6.57;3.40;;;;;;;11.53;100.00;101155.75;690977;28;899;-57
2023/06/02 00:28:51;;;;;;;7.05;3.15;;;;;;;11.55;100.00;101163.59;692623;28;1595;-57
2023/06/02 00:29:14;;;;;;;5.90;3.27;;;;;;;11.54;100.00;101161.84;689640;28;857;-56
2023/06/02 00:29:34;;;;;;;5.13;3.00;;;;;;;11.57;100.00;101162.75;687633;28;1481;-56
2023/06/02 00:29:55;;;;;;;6.20;3.37;;;;;;;11.63;100.00;101161.84;692335;28;1352;-56
2023/06/02 00:30:15;;;;;;;6.78;3.75;;;;;;;11.71;100.00;101165.34;694934;28;865;-56
2023/06/02 00:30:36;;;;;;;6.77;3.50;;;;;;;11.69;100.00;101160.97;692636;28;1553;-56
2023/06/02 00:30:56;;;;;;;6.20;3.20;;;;;;;11.70;100.00;101160.97;694101;28;1516;-56
2023/06/02 00:31:17;;;;;;;6.47;3.17;;;;;;;11.69;100.00;101160.97;696664;28;4359;-55
2023/06/02 00:31:38;;;;;;;7.15;3.30;;;;;;;11.58;100.00;101156.59;696285;28;1620;-56
2023/06/02 00:31:58;;;;;;;7.40;3.58;;;;;;;11.52;100.00;101161.84;700729;28;813;-56
2023/06/02 00:32:19;;;;;;;6.97;3.57;;;;;;;11.52;100.00;101159.25;700314;28;1422;-56
2023/06/02 00:32:39;;;;;;;7.05;3.42;;;;;;;11.52;100.00;101164.47;699246;28;1451;-56
2023/06/02 00:33:01;;;;;;;7.50;3.50;;;;;;;11.52;100.00;101161.84;699980;28;1221;-56
2023/06/02 00:33:22;;;;;;;6.18;3.35;;;;;;;11.53;100.00;101161.00;697378;28;899;-57
2023/06/02 00:33:42;;;;;;;5.50;3.25;;;;;;;11.52;100.00;101159.25;694075;28;1668;-56
2023/06/02 00:34:02;;;;;;;6.70;3.40;;;;;;;11.47;100.00;101158.38;697832;28;1308;-56
2023/06/02 00:34:25;;;;;;;7.22;3.17;;;;;;;11.48;100.00;101160.13;694216;28;4231;-57
2023/06/02 00:34:46;;;;;;;6.90;3.35;;;;;;;11.48;100.00;101157.50;694514;28;837;-56
2023/06/02 00:35:06;;;;;;;6.17;3.30;;;;;;;11.43;100.00;101166.22;691937;28;905;-56
2023/06/02 00:35:27;;;;;;;6.63;3.30;;;;;;;11.47;100.00;101162.75;691104;28;1700;-56
2023/06/02 00:35:48;;;;;;;6.18;3.35;;;;;;;11.46;100.00;101158.38;695069;28;1504;-56
2023/06/02 00:36:08;;;;;;;6.80;3.17;;;;;;;11.44;100.00;101161.00;694378;28;1106;-56
2023/06/02 00:36:29;;;;;;;6.70;3.50;;;;;;;11.46;100.00;101159.22;691194;28;1531;-56
2023/06/02 00:36:50;;;;;;;5.45;3.60;;;;;;;11.48;100.00;101160.13;692701;28;762;-57
2023/06/02 00:37:10;;;;;;;6.23;3.10;;;;;;;11.47;100.00;101160.97;696170;28;4344;-56
2023/06/02 00:37:30;;;;;;;6.18;3.20;;;;;;;11.45;100.00;101162.75;698899;28;1598;-56
2023/06/02 00:37:52;;;;;;;6.50;3.40;;;;;;;11.46;100.00;101158.38;698666;28;943;-56
2023/06/02 00:38:13;;;;;;;6.53;3.40;;;;;;;11.44;100.00;101160.09;700749;28;970;-57
2023/06/02 00:38:33;;;;;;;6.35;3.05;;;;;;;11.43;100.00;101154.00;699361;28;1498;-56
2023/06/02 00:38:54;;;;;;;6.80;3.00;;;;;;;11.42;100.00;101162.72;697754;28;1040;-56
2023/06/02 00:39:14;;;;;;;7.63;3.40;;;;;;;11.41;100.00;101161.00;696410;28;1018;-56
2023/06/02 00:39:35;;;;;;;7.20;3.30;;;;;;;11.43;100.00;101156.63;696231;28;1333;-56
2023/06/02 00:39:55;;;;;;;6.35;3.00;;;;;;;11.47;100.00;101160.13;697584;28;820;-57
2023/06/02 00:40:15;;;;;;;5.37;3.00;;;;;;;11.62;100.00;101164.47;694832;28;4359;-56
2023/06/02 00:40:36;;;;;;;5.13;3.23;;;;;;;11.61;100.00;101162.72;696729;28;1507;-55
2023/06/02 00:40:56;;;;;;;5.45;3.03;;;;;;;11.59;100.00;101157.50;700108;28;812;-56
2023/06/02 00:41:16;;;;;;;5.63;3.00;;;;;;;11.55;100.00;101154.00;700341;28;1531;-56
2023/06/02 00:41:39;;;;;;;5.97;3.10;;;;;;;11.52;100.00;101163.59;699058;28;1985;-56
2023/06/02 00:42:00;;;;;;;6.00;3.00;;;;;;;11.54;100.00;101154.00;700987;28;930;-56
2023/06/02 00:42:22;;;;;;;5.72;3.10;;;;;;;11.52;100.00;101158.34;702984;28;5733;-56
2023/06/02 00:42:42;;;;;;;5.97;3.17;;;;;;;11.47;100.00;101154.88;698556;28;1612;-56
2023/06/02 00:43:02;;;;;;;5.53;3.20;;;;;;;11.41;100.00;101156.63;698978;28;954;-56
2023/06/02 00:43:23;;;;;;;6.68;3.35;;;;;;;11.40;100.00;101152.25;699877;28;4990;-56
2023/06/02 00:43:43;;;;;;;6.93;3.47;;;;;;;11.41;100.00;101161.84;698819;28;1525;-56
2023/06/02 00:44:03;;;;;;;4.85;3.20;;;;;;;11.41;100.00;101154.00;697596;28;1186;-57
2023/06/02 00:44:25;;;;;;;4.75;3.00;;;;;;;11.41;100.00;101163.63;697549;28;1451;-56
2023/06/02 00:44:45;;;;;;;6.10;3.23;;;;;;;11.46;100.00;101158.38;695187;28;1334;-57
2023/06/02 00:45:06;;;;;;;6.95;3.22;;;;;;;11.48;100.00;101160.13;692207;28;1056;-56
2023/06/02 00:45:27;;;;;;;6.03;3.05;;;;;;;11.56;100.00;101155.75;695511;28;1542;-56
2023/06/02 00:45:47;;;;;;;6.63;3.30;;;;;;;11.60;100.00;101156.59;694027;28;880;-56
2023/06/02 00:46:08;;;;;;;7.43;3.22;;;;;;;11.58;100.00;101160.97;693334;28;4546;-56
2023/06/02 00:46:28;;;;;;;6.97;3.20;;;;;;;11.55;100.00;101158.38;690518;28;1839;-55
2023/06/02 00:46:49;;;;;;;7.40;3.10;;;;;;;11.52;100.00;101153.09;692627;28;1249;-57
2023/06/02 00:47:11;;;;;;;5.88;3.08;;;;;;;11.50;100.00;101154.88;693747;28;998;-55
2023/06/02 00:47:32;;;;;;;7.27;3.40;;;;;;;11.51;100.00;101157.50;694410;28;1665;-56
2023/06/02 00:47:52;;;;;;;6.68;3.30;;;;;;;11.50;100.00;101157.50;698440;28;920;-58
2023/06/02 00:48:12;;;;;;;6.17;3.17;;;;;;;11.47;100.00;101155.75;699823;28;1449;-54
2023/06/02 00:48:33;;;;;;;5.93;3.20;;;;;;;11.48;100.00;101160.13;698673;28;1471;-57
2023/06/02 00:48:53;;;;;;;5.93;3.37;;;;;;;11.51;100.00;101160.09;697668;28;1219;-56
2023/06/02 00:49:14;;;;;;;7.18;3.20;;;;;;;11.55;100.00;101154.00;693955;28;4559;-57
2023/06/02 00:49:34;;;;;;;6.47;3.07;;;;;;;11.58;100.00;101153.97;693748;28;1507;-56
2023/06/02 00:49:55;;;;;;;6.07;3.10;;;;;;;11.58;100.00;101156.59;694603;28;1011;-56
2023/06/02 00:50:16;;;;;;;5.80;3.13;;;;;;;11.65;100.00;101161.84;693696;28;1564;-57
2023/06/02 00:50:37;;;;;;;5.93;3.30;;;;;;;11.71;100.00;101164.44;694523;28;1457;-57
2023/06/02 00:50:58;;;;;;;7.20;3.35;;;;;;;11.70;100.00;101154.84;695144;28;1164;-56
2023/06/02 00:51:19;;;;;;;6.13;3.00;;;;;;;11.72;100.00;101158.34;693867;28;1469;-57
2023/06/02 00:51:41;;;;;;;5.90;3.20;;;;;;;11.67;100.00;101155.75;690948;28;1478;-56
2023/06/02 00:52:03;;;;;;;6.25;3.00;;;;;;;11.64;100.00;101162.72;690497;28;1039;-56
2023/06/02 00:52:24;;;;;;;6.30;3.38;;;;;;;11.60;100.00;101161.84;694317;28;4506;-56
2023/06/02 00:52:46;;;;;;;6.40;3.35;;;;;;;11.55;100.00;101161.84;694856;28;1681;-56
2023/06/02 00:53:06;;;;;;;6.55;3.42;;;;;;;11.52;100.00;101159.25;694528;28;944;-56
2023/06/02 00:53:26;;;;;;;6.70;3.50;;;;;;;11.50;100.00;101154.88;689840;28;1549;-57
2023/06/02 00:53:47;;;;;;;5.70;3.20;;;;;;;11.47;100.00;101153.13;693479;28;816;-56
2023/06/02 00:54:09;;;;;;;5.75;3.40;;;;;;;11.46;100.00;101155.75;695926;28;912;-56
2023/06/02 00:54:29;;;;;;;6.75;3.38;;;;;;;11.50;100.00;101158.34;693324;28;1540;-56
2023/06/02 00:54:50;;;;;;;6.47;3.40;;;;;;;11.51;100.00;101160.09;693212;28;1320;-57
2023/06/02 00:55:10;;;;;;;5.80;3.20;;;;;;;11.55;100.00;101156.59;693271;28;4820;-56
2023/06/02 00:55:31;;;;;;;7.20;3.23;;;;;;;11.58;100.00;101158.34;695343;28;1605;-57
2023/06/02 00:55:52;;;;;;;7.32;3.22;;;;;;;11.65;100.00;101164.47;697928;28;919;-56
2023/06/02 00:56:14;;;;;;;7.05;3.50;;;;;;;11.78;100.00;101158.31;695396;28;2104;-57
2023/06/02 00:56:35;;;;;;;7.38;3.50;;;;;;;11.81;100.00;101160.94;695558;28;1519;-56
2023/06/02 00:56:55;;;;;;;5.97;3.53;;;;;;;11.73;100.00;101160.09;695835;28;895;-54
2023/06/02 00:57:16;;;;;;;6.45;3.60;;;;;;;11.63;100.00;101161.84;695859;28;880;-57
2023/06/02 00:57:40;;;;;;;5.63;3.35;;;;;;;11.58;100.00;101159.22;692769;28;1412;-56
2023/06/02 00:58:03;;;;;;;5.90;3.35;;;;;;;11.52;100.00;101164.47;695876;28;868;-57
2023/06/02 00:58:23;;;;;;;6.10;3.60;;;;;;;11.47;100.00;101160.97;697712;28;4314;-57
2023/06/02 00:58:45;;;;;;;6.03;3.77;;;;;;;11.45;100.00;101164.47;695439;28;1480;-56
2023/06/02 00:59:06;;;;;;;6.88;3.60;;;;;;;11.42;100.00;101157.47;698512;28;824;-56
2023/06/02 00:59:27;;;;;;;6.15;3.22;;;;;;;11.47;100.00;101165.34;698258;28;1475;-57
2023/06/02 00:59:47;;;;;;;6.18;3.20;;;;;;;11.47;100.00;101160.13;697945;28;871;-56
2023/06/02 01:00:09;;;;;;;6.10;3.13;;;;;;;11.43;100.00;101159.22;695579;28;1140;-56
2023/06/02 01:00:33;;;;;;;6.78;3.38;;;;;;;11.41;100.00;101148.78;693871;28;1571;-55
2023/06/02 01:00:54;;;;;;;5.57;3.40;;;;;;;11.43;100.00;101156.63;692388;28;1327;-56
2023/06/02 01:01:18;;;;;;;5.50;3.05;;;;;;;11.52;100.00;101159.25;692850;28;4760;-54
2023/06/02 01:01:39;;;;;;;7.80;3.40;;;;;;;11.58;100.00;101153.13;694945;28;1914;-56
2023/06/02 01:02:00;;;;;;;7.38;3.30;;;;;;;11.56;100.00;101158.38;698039;28;1182;-56
2023/06/02 01:02:20;;;;;;;5.90;3.30;;;;;;;11.53;100.00;101160.09;697918;28;1197;-56
2023/06/02 01:02:41;;;;;;;6.37;3.57;;;;;;;11.47;100.00;101160.97;698803;28;1661;-56
2023/06/02 01:03:02;;;;;;;7.30;3.45;;;;;;;11.55;100.00;101154.00;700931;28;863;-57
2023/06/02 01:03:24;;;;;;;6.35;3.22;;;;;;;11.55;100.00;101164.47;700804;28;1536;-54
2023/06/02 01:03:48;;;;;;;5.40;3.35;;;;;;;11.47;100.00;101160.13;696584;28;1578;-56
2023/06/02 01:04:08;;;;;;;5.53;3.35;;;;;;;11.40;100.00;101154.00;694550;28;4582;-56
2023/06/02 01:04:32;;;;;;;6.10;3.47;;;;;;;11.43;100.00;101159.22;694324;28;1499;-56
2023/06/02 01:04:57;;;;;;;5.30;3.45;;;;;;;11.58;100.00;101158.34;693037;28;936;-57
2023/06/02 01:05:19;;;;;;;6.13;3.70;;;;;;;11.55;100.00;101159.22;693972;28;1126;-56
2023/06/02 01:05:41;;;;;;;7.95;3.75;;;;;;;11.52;100.00;101160.97;696354;28;1436;-55
2023/06/02 01:06:04;;;;;;;6.97;3.50;;;;;;;11.48;100.00;101157.50;699282;28;1606;-56
2023/06/02 01:06:34;;;;;;;5.60;3.40;;;;;;;11.49;100.00;101159.25;700576;28;832;-57
2023/06/02 01:07:00;;;;;;;7.18;3.60;;;;;;;11.43;100.00;101159.22;700457;28;1456;-56
2023/06/02 01:07:24;;;;;;;5.72;3.58;;;;;;;11.39;100.00;101170.56;698398;28;5136;-56
2023/06/02 01:07:46;;;;;;;5.95;3.53;;;;;;;11.38;100.00;101160.97;699490;28;1660;-56
2023/06/02 01:08:07;;;;;;;5.82;3.50;;;;;;;11.40;100.00;101154.00;696498;28;943;-56
2023/06/02 01:08:30;;;;;;;6.00;3.53;;;;;;;11.40;100.00;101159.25;693777;28;1670;-56
2023/06/02 01:08:51;;;;;;;6.22;3.38;;;;;;;11.50;100.00;101158.34;694677;28;1414;-57
2023/06/02 01:09:13;;;;;;;6.68;3.33;;;;;;;11.62;100.00;101159.25;692983;28;1644;-56
2023/06/02 01:09:35;;;;;;;6.75;3.53;;;;;;;11.57;100.00;101167.97;691364;28;1635;-56
2023/06/02 01:10:00;;;;;;;6.07;3.53;;;;;;;11.47;100.00;101158.38;693225;28;960;-56
2023/06/02 01:10:20;;;;;;;5.78;3.30;;;;;;;11.56;100.00;101160.97;696020;28;4572;-56
2023/06/02 01:10:44;;;;;;;5.80;3.47;;;;;;;11.42;100.00;101154.88;695065;28;1534;-57
2023/06/02 01:11:06;;;;;;;6.75;3.58;;;;;;;11.47;100.00;101160.97;697238;28;1251;-55
2023/06/02 01:11:27;;;;;;;5.88;3.33;;;;;;;11.56;100.00;101155.75;691395;28;1442;-55
2023/06/02 01:11:47;;;;;;;5.80;3.42;;;;;;;11.51;100.00;101156.63;692211;28;849;-56
2023/06/02 01:12:08;;;;;;;5.60;3.50;;;;;;;11.53;100.00;101163.63;692657;28;1302;-57
2023/06/02 01:12:29;;;;;;;6.53;3.90;;;;;;;11.48;100.00;101162.72;691811;28;1522;-56
2023/06/02 01:12:50;;;;;;;6.45;3.65;;;;;;;11.41;100.00;101159.25;689718;28;1376;-57
2023/06/02 01:13:11;;;;;;;6.53;3.35;;;;;;;11.33;100.00;101160.13;690698;28;4371;-57
2023/06/02 01:13:32;;;;;;;6.43;3.78;;;;;;;11.31;100.00;101154.00;690406;28;1908;-56
2023/06/02 01:13:53;;;;;;;6.78;3.60;;;;;;;11.31;100.00;101161.84;692973;28;1330;-57
2023/06/02 01:14:14;;;;;;;5.68;3.42;;;;;;;11.27;100.00;101160.09;695130;28;1440;-58
2023/06/02 01:14:34;;;;;;;5.87;3.60;;;;;;;11.31;100.00;101151.38;692027;28;1452;-56
2023/06/02 01:14:55;;;;;;;6.22;3.80;;;;;;;11.25;100.00;101155.72;694482;28;912;-57
2023/06/02 01:15:15;;;;;;;7.40;3.87;;;;;;;11.22;100.00;101165.34;693020;28;1067;-57
2023/06/02 01:15:38;;;;;;;7.03;3.60;;;;;;;11.17;100.00;101152.28;695369;28;1798;-57
2023/06/02 01:15:58;;;;;;;6.45;3.50;;;;;;;11.18;100.00;101158.38;697456;28;3334;-56
2023/06/02 01:16:19;;;;;;;6.77;3.60;;;;;;;11.22;100.00;101160.97;696372;28;4324;-57
2023/06/02 01:16:40;;;;;;;7.35;3.78;;;;;;;11.28;100.00;101152.25;696061;28;1505;-57
2023/06/02 01:17:01;;;;;;;6.45;3.63;;;;;;;11.29;100.00;101153.16;697542;28;1182;-57
2023/06/02 01:17:28;;;;;;;8.05;3.95;;;;;;;11.36;100.00;101160.13;696266;28;879;-57
2023/06/02 01:17:50;;;;;;;6.28;3.85;;;;;;;11.30;100.00;101147.91;695512;28;922;-58
2023/06/02 01:18:12;;;;;;;6.22;3.63;;;;;;;11.35;100.00;101153.13;694630;28;899;-57
2023/06/02 01:18:35;;;;;;;5.90;3.40;;;;;;;11.39;100.00;101153.16;695372;28;1443;-57
2023/06/02 01:18:59;;;;;;;5.95;3.42;;;;;;;11.35;100.00;101150.50;698209;28;1182;-58
2023/06/02 01:19:21;;;;;;;5.55;3.40;;;;;;;11.44;100.00;101150.53;696498;28;4379;-56
2023/06/02 01:19:43;;;;;;;7.25;3.53;;;;;;;11.41;100.00;101147.91;696301;28;1729;-57
2023/06/02 01:20:10;;;;;;;7.70;3.60;;;;;;;11.37;100.00;101152.25;698283;28;2239;-58
2023/06/02 01:20:32;;;;;;;7.00;3.40;;;;;;;11.35;100.00;101151.41;691306;28;1382;-57
2023/06/02 01:20:57;;;;;;;5.75;3.40;;;;;;;11.35;100.00;101156.63;692734;28;987;-57
2023/06/02 01:21:23;;;;;;;6.05;3.55;;;;;;;11.32;100.00;101155.75;693075;28;832;-57
2023/06/02 01:21:57;;;;;;;7.50;3.90;;;;;;;11.23;100.00;101152.25;693815;28;1555;-57
2023/06/02 01:22:23;;;;;;;7.10;4.15;;;;;;;11.17;100.00;101160.13;695888;28;4293;-58
2023/06/02 01:22:49;;;;;;;7.00;3.72;;;;;;;11.14;100.00;101162.72;693053;28;1461;-57
2023/06/02 01:23:23;;;;;;;6.45;3.55;;;;;;;11.14;100.00;101157.47;693594;28;911;-56
2023/06/02 01:23:49;;;;;;;6.70;3.92;;;;;;;11.17;100.00;101157.50;693163;28;1469;-56
2023/06/02 01:24:09;;;;;;;5.53;3.78;;;;;;;11.19;100.00;101158.38;695740;28;1107;-57
2023/06/02 01:24:38;;;;;;;5.40;3.77;;;;;;;11.18;100.00;101156.59;697792;28;2215;-56
2023/06/02 01:25:00;;;;;;;6.18;3.53;;;;;;;11.18;100.00;101159.22;700361;28;1310;-57
2023/06/02 01:25:26;;;;;;;6.05;3.35;;;;;;;11.17;100.00;101154.88;697671;28;4505;-57
2023/06/02 01:25:47;;;;;;;6.15;3.60;;;;;;;11.15;100.00;101155.75;698388;28;1076;-57
2023/06/02 01:26:08;;;;;;;7.00;3.70;;;;;;;11.13;100.00;101158.38;697962;28;1154;-56
2023/06/02 01:26:34;;;;;;;7.35;3.80;;;;;;;11.18;100.00;101154.00;694216;28;1553;-58
2023/06/02 01:26:55;;;;;;;6.28;3.70;;;;;;;11.29;100.00;101155.75;689967;28;1592;-57
2023/06/02 01:27:16;;;;;;;7.93;3.97;;;;;;;11.29;100.00;101145.28;694786;28;1038;-57
2023/06/02 01:27:37;;;;;;;8.97;3.87;;;;;;;11.26;100.00;101156.63;691914;28;1485;-57
2023/06/02 01:27:57;;;;;;;6.43;3.50;;;;;;;11.23;100.00;101154.88;692371;28;1173;-57
2023/06/02 01:28:18;;;;;;;5.65;3.30;;;;;;;11.23;100.00;101165.34;691042;28;4396;-57
2023/06/02 01:28:39;;;;;;;5.68;3.40;;;;;;;11.22;100.00;101154.88;694391;28;1533;-57
2023/06/02 01:29:01;;;;;;;5.72;3.50;;;;;;;11.20;100.00;101161.84;695999;28;1383;-56
2023/06/02 01:29:22;;;;;;;6.75;3.63;;;;;;;11.19;100.00;101155.75;695671;28;911;-56
2023/06/02 01:29:44;;;;;;;7.90;3.75;;;;;;;11.20;100.00;101149.66;692541;28;1519;-57
2023/06/02 01:30:07;;;;;;;7.57;3.80;;;;;;;11.29;100.00;101147.91;695649;28;1365;-56
2023/06/02 01:30:27;;;;;;;6.40;3.75;;;;;;;11.24;100.00;101158.34;695104;28;1523;-56
2023/06/02 01:31:06;;;;;;;5.88;3.72;;;;;;;11.24;100.00;101153.13;699287;28;999;-56
2023/06/02 01:31:30;;;;;;;7.22;3.72;;;;;;;11.35;100.00;101148.78;697515;28;4938;-55
2023/06/02 01:31:55;;;;;;;6.65;3.50;;;;;;;11.31;100.00;101148.75;697353;28;1425;-57
2023/06/02 01:32:28;;;;;;;6.88;3.63;;;;;;;11.31;100.00;101148.75;699450;28;911;-57
2023/06/02 01:32:57;;;;;;;6.22;3.70;;;;;;;11.32;100.00;101147.91;699611;28;911;-57
2023/06/02 01:33:28;;;;;;;6.00;3.40;;;;;;;11.23;100.00;101143.53;701141;28;864;-57
2023/06/02 01:34:15;;;;;;;7.18;3.28;;;;;;;11.32;100.00;101143.53;700263;28;916;-56
2023/06/02 01:34:48;;;;;;;6.32;3.40;;;;;;;11.36;100.00;101152.25;698345;28;4735;-57
2023/06/02 01:35:10;;;;;;;6.55;3.55;;;;;;;11.32;100.00;101147.91;697316;28;1480;-56
2023/06/02 01:35:35;;;;;;;6.10;3.50;;;;;;;11.35;100.00;101145.28;699434;28;1675;-56
2023/06/02 01:35:59;;;;;;;5.75;3.50;;;;;;;11.33;100.00;101149.66;698370;28;1241;-57
2023/06/02 01:36:22;;;;;;;6.63;3.45;;;;;;;11.30;100.00;101147.00;698052;28;924;-56
2023/06/02 01:36:48;;;;;;;7.47;3.55;;;;;;;11.27;100.00;101145.28;693864;28;1522;-57
2023/06/02 01:37:10;;;;;;;6.22;3.35;;;;;;;11.33;100.00;101149.66;694870;28;4530;-56
2023/06/02 01:37:33;;;;;;;7.28;3.45;;;;;;;11.24;100.00;101143.53;693756;28;1618;-57
2023/06/02 01:37:58;;;;;;;5.80;3.30;;;;;;;11.23;100.00;101148.78;698220;28;1532;-56
2023/06/02 01:38:20;;;;;;;6.78;3.60;;;;;;;11.24;100.00;101145.28;700302;28;868;-57
2023/06/02 01:38:43;;;;;;;6.95;3.58;;;;;;;11.21;100.00;101140.91;698079;28;3577;-57
2023/06/02 01:39:06;;;;;;;7.38;3.67;;;;;;;11.18;100.00;101146.16;701240;28;966;-57
2023/06/02 01:39:30;;;;;;;6.35;3.70;;;;;;;11.17;100.00;101149.66;700965;28;1077;-57
2023/06/02 01:39:52;;;;;;;6.20;3.40;;;;;;;11.25;100.00;101145.25;699915;28;1466;-56
2023/06/02 01:40:16;;;;;;;6.43;3.58;;;;;;;11.31;100.00;101141.81;697572;28;4554;-56
2023/06/02 01:40:39;;;;;;;6.72;3.67;;;;;;;11.30;100.00;101144.41;693403;28;1891;-56
2023/06/02 01:41:02;;;;;;;6.90;3.65;;;;;;;11.24;100.00;101147.88;695030;28;1000;-56
2023/06/02 01:41:23;;;;;;;6.82;3.50;;;;;;;11.20;100.00;101151.38;692510;28;2055;-57
2023/06/02 01:41:45;;;;;;;7.28;3.60;;;;;;;11.21;100.00;101143.53;689796;28;1560;-56
2023/06/02 01:42:06;;;;;;;7.25;3.55;;;;;;;11.17;100.00;101146.16;692189;28;1382;-57
2023/06/02 01:42:27;;;;;;;6.93;3.58;;;;;;;11.15;100.00;101142.66;689138;28;1256;-58
2023/06/02 01:42:48;;;;;;;5.77;3.50;;;;;;;11.15;100.00;101148.75;692232;28;1458;-56
2023/06/02 01:43:10;;;;;;;6.05;3.38;;;;;;;11.17;100.00;101149.66;693160;28;4523;-56
2023/06/02 01:43:32;;;;;;;7.32;3.58;;;;;;;11.21;100.00;101146.13;694393;28;1709;-56
2023/06/02 01:43:54;;;;;;;7.95;3.78;;;;;;;11.23;100.00;101140.94;695226;28;1452;-57
2023/06/02 01:44:16;;;;;;;6.45;3.80;;;;;;;11.20;100.00;101149.66;696716;28;879;-57